Salisbury Ocean City Wicomico Regional Airport
KSBY : rendu visible

Aérodrome :











RETROUVEZ-NOUS SUR...

 
LOGIN :

S'inscrire | Disclaimer

   EN    FR    IT 

 









Légende :    VFR   VFR Marginal   IFR   IFR Intensif   IFR Très Intensif
Visi : 
Plafond : 
>= 8 km
>= 3000ft
5 à 8 km
1000 à 3000 ft
1500m à 5 km
500 à 1000 ft
800 à 1500m
200 à 500 ft
< 800m
< 200 ft
Symboles :   Orages  Brouillard  Fortes neiges  Fortes précipitations  Vent > 20 kt






- Altitude de l'aérodrome : 52 ft
- Code IATA : SBY


KSBY - Salisbury Ocean City Wicomico Regional

DERNIER METAR :
  • 230954Z AUTO 00000KT 10SM CLR M03/M07 A3027 RMK AO2 SLP252 I1000 T10331067

METARs EXPIRÉS :
  • 230854Z AUTO 00000KT 10SM CLR M03/M06 A3026 RMK AO2 SLP251 T10331061 55001
  • 230754Z AUTO 11003KT 10SM CLR M04/M07 A3026 RMK AO2 SLP249 T10391067

TAF KSBY
Valide du 23 à 06h jusqu'au 24 à 06h UTC


230520Z 2306/2406 VRB03KT P6SM SKC
FM231600 21007KT P6SM SKC
FM240000 18003KT P6SM SCT250



MET'MAP, la Météo Aéronautique d'un coup d'oeil ! - Copyright ORBIFLY Décembre 2007 - Disclaimer

ORBIFLY MET'MAP TEAM :

Programmation & Développement : Alexandra Zaïnal
Sur une idée originale de : Baudouin d'Aumeries
Assistance à la programmation : Marc-Olivier Méhu
Soutien technique & logistique : Manuel Goepfert

Contact : metmap@orbifly.com




SOURCES & CREDITS :

   NOAA       Earth
Advisory